createdAt,value
2019-04-05T00:04:52.545Z,89
2019-04-05T00:09:55.046Z,89
2019-04-05T00:14:57.796Z,84
2019-04-05T00:19:59.945Z,89
2019-04-05T00:25:02.378Z,92
2019-04-05T00:30:04.865Z,97
2019-04-05T00:35:07.298Z,93
2019-04-05T00:40:09.739Z,105
2019-04-05T00:45:12.579Z,95
2019-04-05T00:50:14.659Z,106
2019-04-05T00:55:17.178Z,96
2019-04-05T01:00:19.579Z,100
2019-04-05T01:05:22.060Z,104
2019-04-05T01:10:24.500Z,111
2019-04-05T01:15:26.994Z,98
2019-04-05T01:20:29.416Z,120
2019-04-05T01:25:31.866Z,101
2019-04-05T01:30:34.356Z,110
2019-04-05T01:35:36.773Z,112
2019-04-05T01:40:39.273Z,118
2019-04-05T01:45:52.876Z,130
2019-04-05T01:50:44.191Z,132
2019-04-05T01:55:46.616Z,128
2019-04-05T02:00:49.109Z,137
2019-04-05T02:05:51.603Z,121
2019-04-05T02:10:53.980Z,136
2019-04-05T02:16:05.911Z,132
2019-04-05T02:20:58.900Z,140
2019-04-05T02:26:01.348Z,113
2019-04-05T02:31:03.822Z,112
2019-04-05T02:36:06.297Z,128
2019-04-05T02:41:08.722Z,119
2019-04-05T02:46:23.023Z,114
2019-04-05T02:51:13.717Z,119
2019-04-05T02:56:16.109Z,112
2019-04-05T03:01:18.554Z,111
2019-04-05T03:06:21.107Z,107
2019-04-05T03:11:23.465Z,105
2019-04-05T03:16:38.979Z,101
2019-04-05T03:21:28.437Z,110
2019-04-05T03:26:30.929Z,113
2019-04-05T03:31:33.309Z,104
2019-04-05T03:36:35.881Z,113
2019-04-05T03:41:38.258Z,106
2019-04-05T03:46:55.192Z,111
2019-04-05T03:51:43.140Z,105
2019-04-05T03:56:45.583Z,108
2019-04-05T04:01:48.042Z,117
2019-04-05T04:11:53.013Z,119
2019-04-05T04:17:10.852Z,110
2019-04-05T04:21:58.086Z,112
2019-04-05T04:27:00.397Z,113
2019-04-05T04:32:02.791Z,114
2019-04-05T04:42:07.712Z,107
2019-04-05T04:47:10.178Z,106
2019-04-05T04:52:12.643Z,120
2019-04-05T04:57:15.079Z,112
2019-04-05T05:02:17.569Z,121
2019-04-05T05:07:19.996Z,106
2019-04-05T05:12:22.447Z,121
2019-04-05T05:17:37.337Z,111
2019-04-05T05:22:27.353Z,103
2019-04-05T05:27:29.828Z,107
2019-04-05T05:32:32.344Z,99
2019-04-05T05:37:34.846Z,100
2019-04-05T05:42:37.210Z,106
2019-04-05T05:47:50.964Z,93
2019-04-05T05:52:42.127Z,100
2019-04-05T05:57:44.566Z,102
2019-04-05T06:02:48.474Z,99
2019-04-05T06:07:49.554Z,99
2019-04-05T06:12:51.942Z,94
2019-04-05T06:18:04.062Z,84
2019-04-05T06:22:56.868Z,87
2019-04-05T06:27:59.855Z,84
2019-04-05T06:33:01.791Z,91
2019-04-05T06:38:04.325Z,97
2019-04-05T06:43:07.102Z,99
2019-04-05T06:48:18.785Z,88
2019-04-05T06:53:11.944Z,88
2019-04-05T06:58:19.506Z,89
2019-04-05T07:03:16.515Z,93
2019-04-05T07:08:19.075Z,87
2019-04-05T07:13:21.643Z,81
2019-04-05T07:18:32.863Z,79
2019-04-05T07:23:26.634Z,74
2019-04-05T07:28:28.816Z,73
2019-04-05T07:33:31.264Z,79
2019-04-05T07:38:33.824Z,75
2019-04-05T07:43:36.226Z,79
2019-04-05T07:48:44.460Z,76
2019-04-05T07:53:41.461Z,72
2019-04-05T07:58:43.570Z,72
2019-04-05T08:03:46.117Z,86
2019-04-05T08:08:48.565Z,94
2019-04-05T08:13:50.957Z,82
2019-04-05T08:18:57.858Z,98
2019-04-05T08:23:56.203Z,91
2019-04-05T08:28:58.308Z,87
2019-04-05T08:34:00.780Z,87
2019-04-05T08:39:03.250Z,82
2019-04-05T08:44:05.716Z,84
2019-04-05T08:49:10.784Z,79
2019-04-05T08:54:10.934Z,83
2019-04-05T08:59:13.606Z,73
2019-04-05T09:04:15.584Z,69
2019-04-05T09:09:17.978Z,67
2019-04-05T09:14:20.924Z,69
2019-04-05T09:19:24.003Z,66
2019-04-05T09:24:25.742Z,64
2019-04-05T09:29:27.857Z,58
2019-04-05T09:34:30.522Z,56
2019-04-05T09:39:32.852Z,55
2019-04-05T09:44:35.384Z,54
2019-04-05T09:49:37.806Z,53
2019-04-05T09:54:40.618Z,53
2019-04-05T09:59:42.722Z,54
2019-04-05T10:04:45.290Z,51
2019-04-05T10:09:50.301Z,51
2019-04-05T10:14:50.235Z,51
2019-04-05T10:19:52.599Z,48
2019-04-05T10:24:55.032Z,50
2019-04-05T10:29:57.509Z,51
2019-04-05T10:34:59.939Z,52
2019-04-05T10:40:02.574Z,49
2019-04-05T10:45:04.920Z,47
2019-04-05T10:50:07.337Z,49
2019-04-05T10:55:10.164Z,48
2019-04-05T11:00:12.384Z,50
2019-04-05T11:05:14.715Z,48
2019-04-05T11:10:17.184Z,49
2019-04-05T11:15:19.679Z,49
2019-04-05T11:20:22.345Z,45
2019-04-05T11:25:25.018Z,47
2019-04-05T11:30:27.104Z,48
2019-04-05T11:35:29.467Z,46
2019-04-05T11:40:32.035Z,46
2019-04-05T11:45:34.545Z,45
2019-04-05T11:50:36.911Z,45
2019-04-05T11:55:39.702Z,45
2019-04-05T12:00:41.851Z,46
2019-04-05T12:05:44.231Z,44
2019-04-05T12:10:46.716Z,48
2019-04-05T12:15:49.236Z,50
2019-04-05T12:20:59.511Z,52
2019-04-05T12:25:54.817Z,54
2019-04-05T12:30:56.525Z,53
2019-04-05T12:35:59.017Z,57
2019-04-05T12:41:01.508Z,55
2019-04-05T12:46:03.911Z,59
2019-04-05T12:51:06.494Z,58
2019-04-05T12:56:09.229Z,55
2019-04-05T13:01:11.293Z,54
2019-04-05T13:06:14.035Z,59
2019-04-05T13:11:16.267Z,54
2019-04-05T13:16:18.693Z,51
2019-04-05T13:21:21.169Z,51
2019-04-05T13:26:26.352Z,59
2019-04-05T13:31:26.039Z,64
2019-04-05T13:36:28.524Z,61
2019-04-05T13:41:32.154Z,65
2019-04-05T13:46:33.486Z,72
2019-04-05T13:51:35.888Z,64
2019-04-05T13:56:39.497Z,62
2019-04-05T14:01:40.862Z,53
2019-04-05T14:06:43.385Z,61
2019-04-05T14:11:45.741Z,64
2019-04-05T14:16:48.476Z,56
2019-04-05T14:21:53.467Z,57
2019-04-05T14:26:53.493Z,60
2019-04-05T14:31:55.682Z,64
2019-04-05T14:36:58.153Z,66
2019-04-05T14:42:09.360Z,64
2019-04-05T14:47:03.395Z,54
2019-04-05T14:57:07.855Z,61
2019-04-05T15:02:10.293Z,66
2019-04-05T15:07:12.997Z,63
2019-04-05T15:12:15.214Z,63
2019-04-05T15:17:17.945Z,70
2019-04-05T15:22:20.173Z,67
2019-04-05T15:27:22.914Z,68
2019-04-05T15:32:25.414Z,68
2019-04-05T15:37:27.522Z,59
2019-04-05T15:42:29.977Z,68
2019-04-05T15:47:32.456Z,62
2019-04-05T15:52:34.877Z,62
2019-04-05T16:02:42.652Z,74
2019-04-05T16:07:42.257Z,72
2019-04-05T16:12:44.738Z,71
2019-04-05T16:17:47.193Z,72
2019-04-05T16:22:49.702Z,68
2019-04-05T16:27:52.220Z,68
2019-04-05T16:32:54.616Z,69
2019-04-05T16:43:02.550Z,66
2019-04-05T16:48:02.011Z,72
2019-04-05T16:53:04.423Z,68
2019-04-05T16:58:06.832Z,68
2019-04-05T17:03:09.290Z,69
2019-04-05T17:08:11.764Z,69
2019-04-05T17:13:14.197Z,70
2019-04-05T17:18:16.696Z,75
2019-04-05T17:23:19.236Z,66
2019-04-05T17:28:21.770Z,70
2019-04-05T17:33:24.081Z,74
2019-04-05T17:38:26.525Z,62
2019-04-05T17:43:29.044Z,73
2019-04-05T17:48:31.406Z,69
2019-04-05T17:53:33.887Z,69
2019-04-05T17:58:36.381Z,62
2019-04-05T18:03:38.778Z,71
2019-04-05T18:08:41.245Z,65
2019-04-05T18:13:43.705Z,65
2019-04-05T18:18:46.198Z,68
2019-04-05T18:23:48.727Z,65
2019-04-05T18:28:51.108Z,70
2019-04-05T18:33:53.566Z,79
2019-04-05T18:38:55.978Z,81
2019-04-05T18:43:58.433Z,82
2019-04-05T18:49:00.903Z,77
2019-04-05T18:54:03.443Z,85
2019-04-05T18:59:05.810Z,76
2019-04-05T19:04:08.283Z,76
2019-04-05T19:09:11.990Z,79
2019-04-05T19:14:13.200Z,79
2019-04-05T19:19:17.701Z,78
2019-04-05T19:24:18.120Z,87
2019-04-05T19:29:20.634Z,87
2019-04-05T19:49:30.451Z,90
2019-04-05T19:54:32.917Z,87
2019-04-05T19:59:35.370Z,78
2019-04-05T20:04:37.814Z,84
2019-04-05T20:09:40.273Z,93
2019-04-05T20:14:42.673Z,95
2019-04-05T20:19:45.193Z,86
2019-04-05T20:24:47.677Z,89
2019-04-05T20:29:50.103Z,88
2019-04-05T20:34:52.502Z,97
2019-04-05T20:39:54.952Z,90
2019-04-05T20:44:57.491Z,96
2019-04-05T20:49:59.877Z,111
2019-04-05T20:55:02.410Z,89
2019-04-05T21:00:04.810Z,89
2019-04-05T21:05:07.264Z,95
2019-04-05T21:10:09.700Z,91
2019-04-05T21:15:12.191Z,103
2019-04-05T21:20:14.648Z,108
2019-04-05T21:25:17.082Z,117
2019-04-05T21:30:19.783Z,103
2019-04-05T21:35:22.236Z,102
2019-04-05T21:40:24.466Z,106
2019-04-05T21:45:26.969Z,117
2019-04-05T21:50:29.357Z,124
2019-04-05T21:55:31.838Z,115
2019-04-05T22:00:34.321Z,105
2019-04-05T22:05:36.788Z,116
2019-04-05T22:10:39.304Z,123
2019-04-05T22:15:41.654Z,110
2019-04-05T22:20:44.132Z,99
2019-04-05T22:25:46.665Z,96
2019-04-05T22:30:49.025Z,94
2019-04-05T22:40:53.945Z,79
2019-04-05T22:45:56.606Z,64
2019-04-05T22:50:58.877Z,54
2019-04-05T22:56:01.324Z,45
2019-04-05T23:01:03.778Z,34
2019-04-05T23:06:06.316Z,32
2019-04-05T23:11:08.707Z,25
2019-04-05T23:16:11.198Z,35
2019-04-05T23:21:13.665Z,41
2019-04-05T23:26:16.080Z,60
2019-04-05T23:31:18.570Z,59
2019-04-05T23:36:21.010Z,56
2019-04-05T23:41:23.490Z,51
2019-04-05T23:46:25.959Z,63
2019-04-05T23:51:28.378Z,51
2019-04-05T23:56:30.844Z,63
